Etusivu
METAR-TAF:

METAR-TAF

Lentoasemat :

Åre Östersundin lentoasema

Östersund-Frösön, Ruotsi

Leveyspiiri: 63-11N, Pituuspiiri: 014-30E, korkeus merenpinnasta: 376 m

Tämänhetkinen sää

Tämä raportti tehtiin 26 minuuttia sitten, kello 13.20 UTC
Tuuli 6 kn lännestä
Lämpötila -1°C
Kosteus 34%
Ilmanpaine 1026 hPa
Näkyvyys 10 km tai enemmän
ei pilviä alle 1500 m:ssä eikä cumulonimbus-pilviä

METAR: ESNZ 301320Z 27006KT CAVOK M01/M15 Q1026

Aika: 15:46 (13:46 UTC)

Sääennuste

Tämä raportti tehtiin 2 tuntia ja 16 minuuttia sitten, kello 11.30 UTC
Ennuste voimassa 30. päivästä klo 12 UTC - 30. päivään klo 21 UTC
Tuuli 6 kn pohjoisesta
Näkyvyys 10 km tai enemmän
ei pilviä alle 1500 m:ssä eikä cumulonimbus-pilviä

TAF: ESNZ 301130Z 3012/3021 01006KT CAVOK

Säähavainnot ja -ennusteet yli 4000 lentoasemalta (METAR- ja TAF-raportit).

Käytössä olevat sääasemat on merkitty karttaan keltaisilla ja punaisilla pisteillä.

Aseta hiiri pisteen päälle nähdäksesi sääaseman nimen.

Klikkaa sitten nähdäksesi säähavainnot ja -ennusteet.

Kartan vaihtaminen: klikkaa mustalla rastilla varustettuja vihreitä pisteitä, niin voit zoomata sisään; viivalla varustettua vihreää pistettä, niin voit zoomata ulos tai vihreitä nuolia, niin pääset viereisille kartoille.


METAR-TAF: